Time;durP1;ratioP1;P1;durP2;ratioP2;P2;SDS_P1;SDS_P2;PMS_P1;PMS_P2;Temp;Humidity;BMP_temperature;BMP_pressure;BME280_temperature;BME280_humidity;BME280_pressure;Samples;Min_cycle;Max_cycle;Signal;HPM_P1;HPM_P2
2023/07/15 00:01:56;;;;;;;5.25;3.13;;;;;;;;;;4921920;29;20062;-87
2023/07/15 00:04:24;;;;;;;6.72;3.15;;;;;;;;;;4922163;29;20048;-87
2023/07/15 00:06:51;;;;;;;6.90;3.00;;;;;;;;;;4922856;29;20048;-87
2023/07/15 00:09:22;;;;;;;6.15;3.13;;;;;;;;;;4922960;29;20052;-87
2023/07/15 00:11:52;;;;;;;5.97;3.17;;;;;;;;;;4924272;29;20405;-87
2023/07/15 00:14:21;;;;;;;6.53;3.30;;;;;;;;;;4924945;29;20111;-87
2023/07/15 00:16:49;;;;;;;6.30;3.13;;;;;;;;;;4923597;29;20055;-87
2023/07/15 00:19:20;;;;;;;5.40;3.03;;;;;;;;;;4922224;29;20079;-87
2023/07/15 00:21:52;;;;;;;5.25;3.15;;;;;;;;;;4921386;29;20062;-87
2023/07/15 00:24:19;;;;;;;4.97;2.92;;;;;;;;;;4921452;29;20149;-87
2023/07/15 00:26:47;;;;;;;14.52;3.75;;;;;;;;;;4921507;29;20052;-87
2023/07/15 00:29:16;;;;;;;7.13;3.00;;;;;;;;;;4922509;29;20056;-87
2023/07/15 00:31:43;;;;;;;5.05;3.13;;;;;;;;;;4925458;29;20316;-87
2023/07/15 00:34:11;;;;;;;7.50;3.67;;;;;;;;;;4923117;29;20056;-87
2023/07/15 00:36:38;;;;;;;5.47;2.88;;;;;;;;;;4923151;29;20052;-87
2023/07/15 00:39:05;;;;;;;5.75;3.05;;;;;;;;;;4922705;29;20052;-86
2023/07/15 00:41:33;;;;;;;6.50;3.33;;;;;;;;;;4921568;29;20079;-87
2023/07/15 00:44:00;;;;;;;8.00;3.40;;;;;;;;;;4923314;29;20087;-86
2023/07/15 00:46:37;;;;;;;6.57;2.90;;;;;;;;;;4922005;29;20036;-87
2023/07/15 00:49:17;;;;;;;5.70;3.15;;;;;;;;;;4919666;29;20067;-86
2023/07/15 00:51:46;;;;;;;5.60;2.90;;;;;;;;;;4920675;29;20060;-87
2023/07/15 00:54:14;;;;;;;5.95;3.00;;;;;;;;;;4921504;29;20052;-86
2023/07/15 00:56:47;;;;;;;5.25;3.20;;;;;;;;;;4923942;29;20039;-87
2023/07/15 00:59:15;;;;;;;8.88;3.20;;;;;;;;;;4930171;29;20141;-87
2023/07/15 01:01:42;;;;;;;7.18;3.22;;;;;;;;;;4920405;29;20072;-87
2023/07/15 01:04:16;;;;;;;5.07;3.15;;;;;;;;;;4921266;29;20433;-87
2023/07/15 01:06:45;;;;;;;4.95;3.10;;;;;;;;;;4921874;29;20051;-87
2023/07/15 01:09:15;;;;;;;8.15;3.15;;;;;;;;;;4922989;29;20059;-87
2023/07/15 01:11:42;;;;;;;5.40;2.65;;;;;;;;;;4924914;29;20111;-87
2023/07/15 01:14:27;;;;;;;7.15;2.90;;;;;;;;;;4921596;29;20120;-87
2023/07/15 01:16:55;;;;;;;8.88;3.08;;;;;;;;;;4923347;29;20139;-87
2023/07/15 01:19:22;;;;;;;5.82;2.85;;;;;;;;;;4922373;29;20058;-87
2023/07/15 01:21:49;;;;;;;11.57;3.00;;;;;;;;;;4920552;29;20198;-87
2023/07/15 01:24:17;;;;;;;5.68;3.00;;;;;;;;;;4922232;29;20051;-87
2023/07/15 01:26:44;;;;;;;5.45;3.15;;;;;;;;;;4921951;29;20044;-87
2023/07/15 01:29:13;;;;;;;5.65;3.00;;;;;;;;;;4921898;29;20261;-87
2023/07/15 01:31:46;;;;;;;8.10;3.05;;;;;;;;;;4921625;29;20051;-87
2023/07/15 01:34:13;;;;;;;9.82;3.50;;;;;;;;;;4922688;29;20052;-86
2023/07/15 01:36:40;;;;;;;8.88;3.75;;;;;;;;;;4922190;29;20079;-87
2023/07/15 01:39:09;;;;;;;9.57;3.42;;;;;;;;;;4922545;29;20048;-86
2023/07/15 01:41:36;;;;;;;8.85;3.30;;;;;;;;;;4926635;29;20112;-87
2023/07/15 01:44:04;;;;;;;7.03;3.15;;;;;;;;;;4922515;29;20198;-87
2023/07/15 01:46:34;;;;;;;6.88;2.72;;;;;;;;;;4923303;29;20063;-87
2023/07/15 01:49:03;;;;;;;8.48;3.60;;;;;;;;;;4924913;29;20099;-86
2023/07/15 01:51:33;;;;;;;6.25;3.58;;;;;;;;;;4924185;29;20049;-87
2023/07/15 01:54:00;;;;;;;9.38;2.90;;;;;;;;;;4924720;29;20151;-87
2023/07/15 01:56:36;;;;;;;7.40;3.50;;;;;;;;;;4926876;29;20068;-87
2023/07/15 01:59:03;;;;;;;12.20;3.10;;;;;;;;;;4926884;29;20062;-87
2023/07/15 02:01:30;;;;;;;6.78;3.20;;;;;;;;;;4926493;29;20096;-87
2023/07/15 02:03:58;;;;;;;6.97;3.00;;;;;;;;;;4926296;29;20084;-87
2023/07/15 02:06:25;;;;;;;4.72;2.83;;;;;;;;;;4928321;29;20047;-87
2023/07/15 02:08:52;;;;;;;5.05;3.17;;;;;;;;;;4928668;29;20150;-86
2023/07/15 02:11:22;;;;;;;6.45;2.97;;;;;;;;;;4927338;29;20183;-86
2023/07/15 02:13:50;;;;;;;7.97;2.85;;;;;;;;;;4928763;29;20115;-86
2023/07/15 02:16:19;;;;;;;6.32;3.15;;;;;;;;;;4931191;29;20058;-87
2023/07/15 02:18:48;;;;;;;5.15;2.80;;;;;;;;;;4931277;29;20054;-85
2023/07/15 02:21:15;;;;;;;6.72;3.35;;;;;;;;;;4945674;28;20492;-87
2023/07/15 02:23:42;;;;;;;5.63;2.72;;;;;;;;;;4930586;29;20535;-87
2023/07/15 02:26:12;;;;;;;10.38;2.90;;;;;;;;;;4949868;29;20052;-86
2023/07/15 02:28:39;;;;;;;7.88;2.75;;;;;;;;;;4930942;29;20139;-86
2023/07/15 02:31:06;;;;;;;9.10;3.35;;;;;;;;;;4946956;29;20047;-86
2023/07/15 02:33:33;;;;;;;4.97;2.92;;;;;;;;;;4928660;29;20078;-87
2023/07/15 02:36:04;;;;;;;9.55;4.13;;;;;;;;;;4929551;29;20548;-87
2023/07/15 02:38:33;;;;;;;7.38;2.67;;;;;;;;;;4928515;29;20095;-87
2023/07/15 02:41:00;;;;;;;11.88;3.35;;;;;;;;;;4930124;29;20058;-87
2023/07/15 02:43:26;;;;;;;5.20;2.60;;;;;;;;;;4930103;29;20047;-87
2023/07/15 02:45:53;;;;;;;9.15;3.10;;;;;;;;;;4930411;29;20123;-87
2023/07/15 02:48:20;;;;;;;3.67;2.53;;;;;;;;;;4933340;29;20055;-88
2023/07/15 02:50:54;;;;;;;6.70;2.92;;;;;;;;;;4929774;29;20155;-87
2023/07/15 02:53:21;;;;;;;9.40;2.75;;;;;;;;;;4928494;29;20058;-87
2023/07/15 02:55:52;;;;;;;9.02;2.97;;;;;;;;;;4946397;29;20064;-88
2023/07/15 02:58:19;;;;;;;5.93;3.05;;;;;;;;;;4930058;29;20452;-87
2023/07/15 03:00:47;;;;;;;5.38;2.95;;;;;;;;;;4928618;29;20035;-87
2023/07/15 03:03:14;;;;;;;6.82;2.75;;;;;;;;;;4929213;29;20397;-87
2023/07/15 03:05:49;;;;;;;8.88;2.63;;;;;;;;;;4946212;29;20048;-87
2023/07/15 03:08:16;;;;;;;5.00;2.95;;;;;;;;;;4928956;29;20048;-88
2023/07/15 03:10:46;;;;;;;7.40;3.08;;;;;;;;;;4929027;29;20215;-87
2023/07/15 03:13:12;;;;;;;5.85;2.63;;;;;;;;;;4945728;29;20351;-87
2023/07/15 03:15:40;;;;;;;5.68;2.53;;;;;;;;;;4925883;29;20052;-87
2023/07/15 03:18:09;;;;;;;11.00;3.20;;;;;;;;;;4924704;29;20412;-87
2023/07/15 03:20:39;;;;;;;9.32;2.70;;;;;;;;;;4928287;29;20180;-88
2023/07/15 03:23:06;;;;;;;7.18;2.90;;;;;;;;;;4933759;29;20052;-87
2023/07/15 03:25:33;;;;;;;10.43;3.33;;;;;;;;;;4930538;29;20063;-87
2023/07/15 03:28:00;;;;;;;6.35;3.22;;;;;;;;;;4928856;29;20084;-87
2023/07/15 03:30:31;;;;;;;8.40;3.40;;;;;;;;;;4930921;29;20067;-87
2023/07/15 03:33:08;;;;;;;9.88;3.15;;;;;;;;;;4928620;29;20092;-86
2023/07/15 03:35:35;;;;;;;7.90;3.08;;;;;;;;;;4927010;29;20060;-87
2023/07/15 03:38:02;;;;;;;5.78;3.08;;;;;;;;;;4928125;29;20059;-87
2023/07/15 03:40:31;;;;;;;5.50;3.08;;;;;;;;;;4926386;29;20056;-86
2023/07/15 03:42:58;;;;;;;5.95;2.45;;;;;;;;;;4925457;29;20056;-86
2023/07/15 03:45:25;;;;;;;10.18;3.22;;;;;;;;;;4926008;29;20118;-86
2023/07/15 03:47:53;;;;;;;9.25;3.25;;;;;;;;;;4929400;29;20072;-87
2023/07/15 03:50:24;;;;;;;4.70;2.55;;;;;;;;;;4927046;29;20413;-86
2023/07/15 03:52:51;;;;;;;6.15;3.05;;;;;;;;;;4926739;29;20056;-87
2023/07/15 03:55:17;;;;;;;8.30;3.47;;;;;;;;;;4927792;29;20144;-87
2023/07/15 03:57:44;;;;;;;5.45;2.80;;;;;;;;;;4927613;29;20204;-86
2023/07/15 04:00:17;;;;;;;6.63;3.67;;;;;;;;;;4928002;29;20056;-86
2023/07/15 04:02:53;;;;;;;8.35;2.97;;;;;;;;;;4926745;29;20048;-87
2023/07/15 04:05:20;;;;;;;6.97;3.00;;;;;;;;;;4930575;29;20055;-87
2023/07/15 04:07:47;;;;;;;7.10;2.60;;;;;;;;;;4927823;29;20079;-87
2023/07/15 04:10:17;;;;;;;6.28;3.00;;;;;;;;;;4927547;29;20082;-87
2023/07/15 04:12:43;;;;;;;4.95;2.72;;;;;;;;;;4926574;29;20130;-86
2023/07/15 04:15:14;;;;;;;5.20;3.13;;;;;;;;;;4927912;29;20116;-86
2023/07/15 04:17:40;;;;;;;5.68;2.47;;;;;;;;;;4927740;29;20060;-87
2023/07/15 04:20:14;;;;;;;6.55;2.60;;;;;;;;;;4926567;29;20272;-87
2023/07/15 04:22:41;;;;;;;3.90;2.65;;;;;;;;;;4926110;29;20120;-87
2023/07/15 04:25:11;;;;;;;8.35;3.30;;;;;;;;;;4926135;29;20061;-86
2023/07/15 04:27:38;;;;;;;9.32;3.45;;;;;;;;;;4925490;29;20048;-86
2023/07/15 04:30:06;;;;;;;4.60;2.53;;;;;;;;;;4925212;29;20121;-85
2023/07/15 04:32:33;;;;;;;6.28;2.50;;;;;;;;;;4925107;29;20081;-86
2023/07/15 04:35:02;;;;;;;7.90;2.97;;;;;;;;;;4924814;29;20051;-87
2023/07/15 04:37:29;;;;;;;5.97;3.13;;;;;;;;;;4924048;29;20056;-87
2023/07/15 04:39:58;;;;;;;7.07;2.70;;;;;;;;;;4905286;29;20433;-87
2023/07/15 04:42:25;;;;;;;5.90;2.53;;;;;;;;;;4906118;29;20053;-87
2023/07/15 04:44:52;;;;;;;6.32;2.55;;;;;;;;;;4904732;29;20061;-87
2023/07/15 04:47:19;;;;;;;9.68;3.03;;;;;;;;;;4905599;29;20048;-87
2023/07/15 04:49:46;;;;;;;8.10;2.65;;;;;;;;;;4905012;29;20071;-87
2023/07/15 04:52:13;;;;;;;8.00;2.58;;;;;;;;;;4904954;29;20056;-86
2023/07/15 04:54:39;;;;;;;4.97;2.25;;;;;;;;;;4906470;29;20052;-87
2023/07/15 04:57:10;;;;;;;8.52;2.90;;;;;;;;;;4904481;29;20334;-87
2023/07/15 04:59:36;;;;;;;5.13;2.05;;;;;;;;;;4905373;29;20064;-86
2023/07/15 05:02:03;;;;;;;7.40;2.80;;;;;;;;;;4905866;29;20064;-87
2023/07/15 05:04:33;;;;;;;6.28;2.38;;;;;;;;;;4904801;29;20093;-86
2023/07/15 05:07:00;;;;;;;4.22;2.38;;;;;;;;;;4905852;29;20080;-87
2023/07/15 05:09:31;;;;;;;5.25;2.22;;;;;;;;;;4907088;29;20088;-87
2023/07/15 05:12:00;;;;;;;4.53;2.17;;;;;;;;;;4915454;29;20044;-87
2023/07/15 05:14:41;;;;;;;5.78;2.53;;;;;;;;;;4909653;29;20048;-87
2023/07/15 05:17:22;;;;;;;2.90;2.05;;;;;;;;;;4901623;29;20045;-87
2023/07/15 05:20:03;;;;;;;6.47;2.03;;;;;;;;;;4888503;29;20052;-86
2023/07/15 05:22:31;;;;;;;5.63;2.28;;;;;;;;;;4888679;29;20061;-87
2023/07/15 05:24:58;;;;;;;4.57;2.65;;;;;;;;;;4887767;29;20053;-87
2023/07/15 05:27:24;;;;;;;4.47;2.15;;;;;;;;;;4886649;29;20188;-87
2023/07/15 05:29:52;;;;;;;4.85;2.00;;;;;;;;;;4888854;29;20061;-88
2023/07/15 05:32:21;;;;;;;4.20;2.17;;;;;;;;;;4889304;29;20064;-87
2023/07/15 05:34:48;;;;;;;3.78;2.05;;;;;;;;;;4887771;29;20097;-87
2023/07/15 05:37:18;;;;;;;8.13;2.00;;;;;;;;;;4888332;29;20060;-87
2023/07/15 05:39:48;;;;;;;4.97;2.00;;;;;;;;;;4890383;29;20064;-87
2023/07/15 05:42:15;;;;;;;4.28;2.25;;;;;;;;;;4889198;29;20097;-87
2023/07/15 05:44:42;;;;;;;3.20;2.20;;;;;;;;;;4892000;29;20041;-87
2023/07/15 05:47:12;;;;;;;4.22;2.30;;;;;;;;;;4900453;29;20040;-87
2023/07/15 05:49:39;;;;;;;3.55;1.90;;;;;;;;;;4891776;29;20049;-87
2023/07/15 05:52:06;;;;;;;4.68;2.00;;;;;;;;;;4889454;29;20403;-86
2023/07/15 05:54:33;;;;;;;12.13;2.60;;;;;;;;;;4890666;29;20112;-86
2023/07/15 05:57:00;;;;;;;4.80;2.53;;;;;;;;;;4890902;29;20049;-88
2023/07/15 05:59:27;;;;;;;3.80;1.75;;;;;;;;;;4889400;29;20148;-87
2023/07/15 06:01:53;;;;;;;4.97;2.20;;;;;;;;;;4900110;29;20060;-87
2023/07/15 06:04:34;;;;;;;3.95;2.50;;;;;;;;;;4903934;29;20093;-87
2023/07/15 06:07:16;;;;;;;3.33;1.70;;;;;;;;;;4903536;29;20048;-88
2023/07/15 06:09:59;;;;;;;9.13;2.15;;;;;;;;;;4903938;29;20037;-88
2023/07/15 06:12:42;;;;;;;6.38;1.90;;;;;;;;;;4903485;29;20052;-87
2023/07/15 06:15:27;;;;;;;2.95;1.80;;;;;;;;;;4902815;29;20057;-88
2023/07/15 06:18:10;;;;;;;4.57;2.00;;;;;;;;;;4902338;29;20032;-87
2023/07/15 06:20:54;;;;;;;4.82;1.60;;;;;;;;;;4901821;29;20057;-87
2023/07/15 06:23:34;;;;;;;4.30;1.60;;;;;;;;;;4902033;29;20053;-87
2023/07/15 06:26:20;;;;;;;4.28;1.70;;;;;;;;;;4902640;29;20041;-88
2023/07/15 06:29:01;;;;;;;5.25;1.60;;;;;;;;;;4902205;29;20029;-87
2023/07/15 06:31:42;;;;;;;3.67;1.70;;;;;;;;;;4902535;29;20064;-88
2023/07/15 06:34:23;;;;;;;3.53;1.83;;;;;;;;;;4901924;29;20037;-86
2023/07/15 06:37:32;;;;;;;4.03;1.52;;;;;;;;;;4901639;29;20052;-87
2023/07/15 06:40:14;;;;;;;1.77;1.23;;;;;;;;;;4902510;29;20059;-88
2023/07/15 06:42:55;;;;;;;2.15;1.52;;;;;;;;;;4902358;29;20061;-88
2023/07/15 06:45:37;;;;;;;4.88;1.67;;;;;;;;;;4900854;29;20047;-88
2023/07/15 06:48:17;;;;;;;2.30;1.48;;;;;;;;;;4901812;29;20064;-88
2023/07/15 06:51:04;;;;;;;4.88;1.92;;;;;;;;;;4902164;29;20110;-87
2023/07/15 06:53:46;;;;;;;1.85;1.30;;;;;;;;;;4903312;29;20051;-88
2023/07/15 06:56:27;;;;;;;4.10;1.75;;;;;;;;;;4902258;29;20025;-88
2023/07/15 06:59:08;;;;;;;7.43;1.23;;;;;;;;;;4900758;29;20043;-87
2023/07/15 07:01:48;;;;;;;4.55;1.67;;;;;;;;;;4901394;29;20043;-87
2023/07/15 07:04:30;;;;;;;4.43;1.40;;;;;;;;;;4899380;29;20033;-88
2023/07/15 07:07:13;;;;;;;3.05;1.20;;;;;;;;;;4900620;29;20067;-86
2023/07/15 07:09:59;;;;;;;3.08;1.30;;;;;;;;;;4901154;29;20032;-87
2023/07/15 07:12:44;;;;;;;2.30;1.42;;;;;;;;;;4900859;29;20037;-88
2023/07/15 07:15:29;;;;;;;2.65;1.60;;;;;;;;;;4928968;29;20052;-87
2023/07/15 07:18:06;;;;;;;6.53;1.40;;;;;;;;;;4936659;29;20059;-87
2023/07/15 07:20:46;;;;;;;11.48;1.50;;;;;;;;;;4920466;29;20128;-88
2023/07/15 07:23:29;;;;;;;2.88;1.25;;;;;;;;;;4920662;29;20032;-88
2023/07/15 07:26:11;;;;;;;4.70;1.20;;;;;;;;;;4936247;29;20059;-89
2023/07/15 07:28:53;;;;;;;4.25;1.35;;;;;;;;;;4923034;29;20099;-88
2023/07/15 07:31:35;;;;;;;3.13;1.40;;;;;;;;;;4921985;29;20068;-88
2023/07/15 07:34:15;;;;;;;4.95;1.38;;;;;;;;;;4919548;29;20055;-88
2023/07/15 07:36:56;;;;;;;6.28;1.27;;;;;;;;;;4921322;29;20028;-87
2023/07/15 07:39:36;;;;;;;3.28;1.55;;;;;;;;;;4923023;29;20064;-87
2023/07/15 07:42:17;;;;;;;7.30;1.42;;;;;;;;;;4922454;29;20056;-88
2023/07/15 07:44:59;;;;;;;4.50;2.00;;;;;;;;;;4922625;29;20037;-88
2023/07/15 07:47:40;;;;;;;4.20;1.60;;;;;;;;;;4922313;29;20043;-88
2023/07/15 07:50:23;;;;;;;3.40;1.25;;;;;;;;;;4919513;29;20036;-87
2023/07/15 07:53:07;;;;;;;4.25;1.27;;;;;;;;;;4937282;29;20044;-88
2023/07/15 07:55:48;;;;;;;2.13;1.10;;;;;;;;;;4937392;29;20035;-88
2023/07/15 07:58:30;;;;;;;2.05;1.30;;;;;;;;;;4922627;29;20066;-87
2023/07/15 08:01:11;;;;;;;4.72;1.60;;;;;;;;;;4922991;29;20072;-88
2023/07/15 08:03:53;;;;;;;1.75;1.08;;;;;;;;;;4922433;29;20088;-87
2023/07/15 08:06:55;;;;;;;1.42;1.05;;;;;;;;;;4921295;29;20040;-87
2023/07/15 08:09:36;;;;;;;2.10;0.85;;;;;;;;;;4922744;29;20068;-88
2023/07/15 08:12:18;;;;;;;4.25;1.27;;;;;;;;;;4922058;29;20055;-88
2023/07/15 08:14:58;;;;;;;5.35;1.23;;;;;;;;;;4907077;29;20072;-88
2023/07/15 08:17:51;;;;;;;5.47;1.33;;;;;;;;;;4898755;29;20357;-89
2023/07/15 08:20:42;;;;;;;2.20;1.20;;;;;;;;;;4898076;29;20053;-89
2023/07/15 08:23:23;;;;;;;8.20;1.73;;;;;;;;;;4895701;29;20065;-87
2023/07/15 08:26:08;;;;;;;3.65;1.45;;;;;;;;;;4895773;29;20040;-88
2023/07/15 08:28:49;;;;;;;2.30;1.35;;;;;;;;;;4897042;29;20025;-89
2023/07/15 08:31:31;;;;;;;7.05;1.65;;;;;;;;;;4896039;29;20032;-88
2023/07/15 08:34:11;;;;;;;8.20;1.17;;;;;;;;;;4896703;29;20100;-88
2023/07/15 08:36:54;;;;;;;3.45;1.27;;;;;;;;;;4896777;29;20049;-88
2023/07/15 08:39:38;;;;;;;2.65;1.08;;;;;;;;;;4893849;29;20040;-88
2023/07/15 08:42:21;;;;;;;6.00;1.45;;;;;;;;;;4894779;29;20076;-89
2023/07/15 08:45:11;;;;;;;1.67;1.23;;;;;;;;;;4895956;29;20065;-89
2023/07/15 08:47:53;;;;;;;5.25;1.67;;;;;;;;;;4894769;29;20067;-88
2023/07/15 08:50:35;;;;;;;2.63;1.02;;;;;;;;;;4914466;23;20148;-87
2023/07/15 08:53:20;;;;;;;5.18;1.50;;;;;;;;;;4917740;29;20150;-88
2023/07/15 08:56:20;;;;;;;3.03;1.10;;;;;;;;;;4932753;29;20093;-88
2023/07/15 08:59:06;;;;;;;3.22;1.00;;;;;;;;;;4917928;29;20162;-88
2023/07/15 09:01:48;;;;;;;3.10;1.30;;;;;;;;;;4917174;29;20044;-89
2023/07/15 09:04:30;;;;;;;2.80;1.45;;;;;;;;;;4920065;29;20047;-87
2023/07/15 09:07:10;;;;;;;3.88;1.65;;;;;;;;;;4921602;29;20050;-88
2023/07/15 09:09:51;;;;;;;3.65;1.30;;;;;;;;;;4920475;29;20052;-88
2023/07/15 09:12:32;;;;;;;1.75;1.20;;;;;;;;;;4923278;29;20048;-89
2023/07/15 09:15:15;;;;;;;9.07;1.88;;;;;;;;;;4922863;29;20103;-89
2023/07/15 09:18:01;;;;;;;3.03;1.10;;;;;;;;;;4921283;29;20048;-88
2023/07/15 09:20:42;;;;;;;5.43;1.23;;;;;;;;;;4920674;29;20100;-88
2023/07/15 09:23:33;;;;;;;;;;;;;;;;;;;;;
2023/07/15 09:26:15;;;;;;;2.40;1.20;;;;;;;;;;4933405;29;20041;-89
2023/07/15 09:28:55;;;;;;;4.00;1.35;;;;;;;;;;4920846;29;20048;-89
2023/07/15 09:31:40;;;;;;;2.17;1.00;;;;;;;;;;4920268;29;20025;-88
2023/07/15 09:34:24;;;;;;;10.50;1.20;;;;;;;;;;4919596;29;20032;-88
2023/07/15 09:37:05;;;;;;;6.35;1.27;;;;;;;;;;4918718;29;20255;-88
2023/07/15 09:40:12;;;;;;;3.58;1.10;;;;;;;;;;4935183;29;20040;-87
2023/07/15 09:42:52;;;;;;;5.43;1.70;;;;;;;;;;4922090;29;20111;-88
2023/07/15 09:45:48;;;;;;;;;;;;;;;;;;;;;
2023/07/15 09:48:30;;;;;;;3.90;1.20;;;;;;;;;;4936611;29;20051;-89
2023/07/15 09:51:20;;;;;;;7.07;1.40;;;;;;;;;;4915614;29;20070;-89
2023/07/15 09:54:01;;;;;;;3.13;1.35;;;;;;;;;;4914801;29;20460;-88
2023/07/15 09:56:43;;;;;;;2.28;1.10;;;;;;;;;;4916248;29;20064;-89
2023/07/15 09:59:33;;;;;;;3.08;1.38;;;;;;;;;;4911297;29;20063;-87
2023/07/15 10:02:38;;;;;;;5.40;1.33;;;;;;;;;;4916398;29;20129;-88
2023/07/15 10:05:20;;;;;;;4.03;1.42;;;;;;;;;;4915962;29;20122;-89
2023/07/15 10:08:00;;;;;;;1.90;1.10;;;;;;;;;;4915537;29;20172;-87
2023/07/15 10:10:41;;;;;;;2.65;1.08;;;;;;;;;;4915077;29;20032;-88
2023/07/15 10:13:33;;;;;;;2.63;1.20;;;;;;;;;;4915161;29;20045;-88
2023/07/15 10:16:14;;;;;;;5.97;1.02;;;;;;;;;;4916049;29;20036;-88
2023/07/15 10:19:03;;;;;;;3.85;1.20;;;;;;;;;;4912143;29;20112;-89
2023/07/15 10:21:47;;;;;;;4.18;1.75;;;;;;;;;;4919186;29;20104;-88
2023/07/15 10:24:39;;;;;;;3.38;1.08;;;;;;;;;;4918775;29;20049;-87
2023/07/15 10:27:27;;;;;;;1.23;1.00;;;;;;;;;;4916473;29;20044;-88
2023/07/15 10:30:18;;;;;;;1.65;1.10;;;;;;;;;;4917128;29;20075;-89
2023/07/15 10:33:00;;;;;;;4.43;1.25;;;;;;;;;;4914879;29;20091;-89
2023/07/15 10:35:42;;;;;;;3.30;1.30;;;;;;;;;;4918026;29;20142;-89
2023/07/15 10:38:51;;;;;;;2.47;0.98;;;;;;;;;;4920395;29;20032;-88
2023/07/15 10:41:50;;;;;;;2.65;1.20;;;;;;;;;;4917767;29;20044;-88
2023/07/15 10:44:37;;;;;;;1.95;1.00;;;;;;;;;;4916298;29;20088;-88
2023/07/15 10:47:21;;;;;;;2.05;1.42;;;;;;;;;;4918503;29;20096;-87
2023/07/15 10:50:03;;;;;;;3.30;1.17;;;;;;;;;;4916643;29;20043;-89
2023/07/15 10:52:44;;;;;;;6.07;1.10;;;;;;;;;;4922815;29;20047;-88
2023/07/15 10:55:25;;;;;;;2.20;1.10;;;;;;;;;;4922261;29;20024;-89
2023/07/15 10:58:07;;;;;;;1.73;1.05;;;;;;;;;;4935856;29;20028;-89
2023/07/15 11:01:08;;;;;;;1.10;1.00;;;;;;;;;;4924481;28;20048;-88
2023/07/15 11:03:50;;;;;;;2.28;1.10;;;;;;;;;;4923533;29;20048;-88
2023/07/15 11:06:34;;;;;;;1.48;0.98;;;;;;;;;;4922554;28;20063;-89
2023/07/15 11:09:19;;;;;;;2.00;0.98;;;;;;;;;;4924043;28;20191;-89
2023/07/15 11:12:03;;;;;;;5.60;0.90;;;;;;;;;;4924248;29;20040;-88
2023/07/15 11:14:53;;;;;;;4.10;1.17;;;;;;;;;;4938232;28;20088;-87
2023/07/15 11:17:38;;;;;;;2.40;1.23;;;;;;;;;;4922753;29;20122;-89
2023/07/15 11:20:22;;;;;;;7.22;1.10;;;;;;;;;;4923300;28;20028;-88
2023/07/15 11:23:22;;;;;;;4.70;1.10;;;;;;;;;;4922213;29;20104;-88
2023/07/15 11:26:08;;;;;;;4.22;1.13;;;;;;;;;;4937267;28;20020;-89
2023/07/15 11:28:53;;;;;;;4.28;0.98;;;;;;;;;;4923231;28;20071;-88
2023/07/15 11:31:39;;;;;;;2.00;0.90;;;;;;;;;;4923596;28;20059;-88
2023/07/15 11:34:32;;;;;;;2.13;1.00;;;;;;;;;;4936290;28;20068;-88
2023/07/15 11:37:14;;;;;;;2.15;0.93;;;;;;;;;;4924001;29;20071;-88
2023/07/15 11:40:03;;;;;;;2.08;1.25;;;;;;;;;;4923016;29;20038;-88
2023/07/15 11:42:44;;;;;;;2.72;1.27;;;;;;;;;;4938041;28;20036;-88
2023/07/15 11:45:24;;;;;;;2.65;1.25;;;;;;;;;;4922877;29;20123;-88
2023/07/15 11:48:05;;;;;;;2.35;1.20;;;;;;;;;;4923160;28;20036;-89
2023/07/15 11:50:50;;;;;;;7.30;1.00;;;;;;;;;;4918269;29;20131;-87
2023/07/15 11:53:32;;;;;;;2.95;1.30;;;;;;;;;;4916720;29;20048;-88
2023/07/15 11:56:34;;;;;;;1.55;1.10;;;;;;;;;;4918813;29;20028;-89
2023/07/15 11:59:32;;;;;;;2.38;1.23;;;;;;;;;;4917866;29;20028;-87
2023/07/15 12:02:23;;;;;;;2.15;0.98;;;;;;;;;;4919283;29;20100;-88
2023/07/15 12:05:08;;;;;;;1.15;0.77;;;;;;;;;;4916903;29;20117;-87
2023/07/15 12:07:58;;;;;;;2.58;0.98;;;;;;;;;;4918330;29;20036;-88
2023/07/15 12:10:58;;;;;;;1.73;1.05;;;;;;;;;;4916178;29;20116;-87
2023/07/15 12:13:38;;;;;;;5.38;1.15;;;;;;;;;;4916884;29;20036;-87
2023/07/15 12:16:23;;;;;;;2.92;1.17;;;;;;;;;;4917884;29;20048;-87
2023/07/15 12:19:04;;;;;;;5.35;0.90;;;;;;;;;;4917594;29;20079;-89
2023/07/15 12:21:47;;;;;;;1.38;1.00;;;;;;;;;;4918629;29;20041;-88
2023/07/15 12:24:29;;;;;;;1.83;1.27;;;;;;;;;;4918495;29;20100;-88
2023/07/15 12:27:10;;;;;;;1.20;0.90;;;;;;;;;;4911953;29;20036;-87
2023/07/15 12:29:54;;;;;;;2.28;1.33;;;;;;;;;;4914861;29;20033;-87
2023/07/15 12:32:39;;;;;;;5.90;1.50;;;;;;;;;;4916305;29;20039;-87
2023/07/15 12:35:21;;;;;;;3.20;1.80;;;;;;;;;;4918890;29;20039;-88
2023/07/15 12:38:02;;;;;;;4.28;1.00;;;;;;;;;;4917251;29;20055;-88
2023/07/15 12:40:42;;;;;;;4.55;1.10;;;;;;;;;;4917011;29;20042;-88
2023/07/15 12:43:26;;;;;;;3.88;1.00;;;;;;;;;;4918410;29;20028;-87
2023/07/15 12:46:06;;;;;;;2.60;0.90;;;;;;;;;;4917439;29;20048;-88
2023/07/15 12:48:50;;;;;;;4.68;1.13;;;;;;;;;;4917686;29;20036;-88
2023/07/15 12:51:31;;;;;;;1.85;1.05;;;;;;;;;;4917383;29;20063;-88
2023/07/15 12:54:11;;;;;;;2.75;1.20;;;;;;;;;;4916977;29;20033;-88
2023/07/15 12:56:55;;;;;;;6.07;1.25;;;;;;;;;;4917292;29;20036;-87
2023/07/15 12:59:37;;;;;;;5.32;0.93;;;;;;;;;;4917174;29;20062;-88
2023/07/15 13:02:19;;;;;;;1.33;0.95;;;;;;;;;;4917821;29;20096;-87
2023/07/15 13:05:07;;;;;;;4.55;1.23;;;;;;;;;;4917635;29;20125;-87
2023/07/15 13:07:48;;;;;;;1.60;1.08;;;;;;;;;;4917743;29;20072;-87
2023/07/15 13:10:29;;;;;;;2.20;0.85;;;;;;;;;;4916829;29;20029;-87
2023/07/15 13:13:10;;;;;;;1.17;0.82;;;;;;;;;;4916284;29;20048;-87
2023/07/15 13:15:52;;;;;;;1.73;1.02;;;;;;;;;;4918986;29;20045;-89
2023/07/15 13:18:32;;;;;;;1.08;0.77;;;;;;;;;;4917496;29;20024;-88
2023/07/15 13:21:14;;;;;;;3.60;1.00;;;;;;;;;;4917318;29;20092;-88
2023/07/15 13:23:57;;;;;;;2.13;1.15;;;;;;;;;;4918163;29;20234;-88
2023/07/15 13:26:38;;;;;;;1.85;1.00;;;;;;;;;;4916853;29;20065;-88
2023/07/15 13:29:19;;;;;;;1.17;0.85;;;;;;;;;;4916927;29;20032;-88
2023/07/15 13:32:02;;;;;;;2.20;1.20;;;;;;;;;;4918249;29;20024;-88
2023/07/15 13:34:52;;;;;;;1.80;1.02;;;;;;;;;;4899094;29;20101;-87
2023/07/15 13:37:33;;;;;;;1.20;0.90;;;;;;;;;;4897428;29;20040;-89
2023/07/15 13:40:14;;;;;;;2.80;1.10;;;;;;;;;;4898376;29;20204;-88
2023/07/15 13:43:18;;;;;;;7.05;1.35;;;;;;;;;;4899471;29;20033;-87
2023/07/15 13:46:05;;;;;;;2.97;1.02;;;;;;;;;;4898581;29;20048;-88
2023/07/15 13:48:46;;;;;;;1.48;1.10;;;;;;;;;;4897501;29;20036;-88
2023/07/15 13:51:32;;;;;;;3.38;1.13;;;;;;;;;;4900785;29;20073;-86
2023/07/15 13:54:18;;;;;;;1.30;1.00;;;;;;;;;;4902829;29;20108;-87
2023/07/15 13:57:09;;;;;;;5.20;1.15;;;;;;;;;;4902997;29;20057;-88
2023/07/15 14:00:30;;;;;;;1.45;1.20;;;;;;;;;;4900425;29;20121;-87
2023/07/15 14:03:16;;;;;;;1.75;0.98;;;;;;;;;;4871496;29;20075;-87
2023/07/15 14:06:04;;;;;;;3.25;1.25;;;;;;;;;;4900976;29;20041;-87
2023/07/15 14:08:48;;;;;;;1.23;0.90;;;;;;;;;;4903030;29;20036;-88
2023/07/15 14:11:29;;;;;;;3.03;1.13;;;;;;;;;;4900784;29;20048;-86
2023/07/15 14:14:09;;;;;;;1.85;1.02;;;;;;;;;;4900259;29;20107;-88
2023/07/15 14:17:03;;;;;;;1.55;1.10;;;;;;;;;;4875253;29;20037;-88
2023/07/15 14:19:44;;;;;;;2.17;1.30;;;;;;;;;;4901748;29;20032;-87
2023/07/15 14:22:28;;;;;;;3.88;1.20;;;;;;;;;;4900536;29;20068;-87
2023/07/15 14:25:09;;;;;;;1.35;1.08;;;;;;;;;;4900513;29;20044;-88
2023/07/15 14:27:51;;;;;;;1.60;1.15;;;;;;;;;;4901851;29;20053;-88
2023/07/15 14:30:39;;;;;;;1.10;1.00;;;;;;;;;;4900550;29;20089;-88
2023/07/15 14:33:20;;;;;;;2.85;1.30;;;;;;;;;;4900595;29;20068;-88
2023/07/15 14:52:27;;;;;;;3.22;1.35;;;;;;;;;;5230572;23;19906;-89
2023/07/15 14:58:01;;;;;;;2.75;1.15;;;;;;;;;;5235125;23;20060;-88
2023/07/15 15:00:45;;;;;;;2.33;1.35;;;;;;;;;;4944180;29;20059;-87
2023/07/15 15:03:27;;;;;;;2.25;1.30;;;;;;;;;;4944829;29;20066;-88
2023/07/15 15:06:28;;;;;;;2.03;1.35;;;;;;;;;;4957762;29;20056;-88
2023/07/15 16:04:25;;;;;;;2.67;1.33;;;;;;;;;;5985657;23;21050;-87
2023/07/15 16:07:24;;;;;;;1.23;1.02;;;;;;;;;;5136222;23;20052;-87
2023/07/15 16:10:08;;;;;;;2.67;1.25;;;;;;;;;;4936877;29;20040;-88
2023/07/15 16:13:08;;;;;;;1.20;1.10;;;;;;;;;;4935443;29;20048;-87
2023/07/15 16:15:49;;;;;;;6.47;1.20;;;;;;;;;;4936318;29;20048;-87
2023/07/15 16:18:50;;;;;;;2.40;1.17;;;;;;;;;;4936027;29;20036;-86
2023/07/15 16:21:51;;;;;;;2.88;1.30;;;;;;;;;;4935671;29;20238;-88
2023/07/15 16:24:34;;;;;;;4.47;3.75;;;;;;;;;;4937140;29;20028;-88
2023/07/15 16:27:22;;;;;;;4.22;1.50;;;;;;;;;;4935859;29;20084;-88
2023/07/15 16:30:04;;;;;;;2.78;1.80;;;;;;;;;;4937994;29;20104;-89
2023/07/15 16:32:47;;;;;;;4.65;3.50;;;;;;;;;;4934745;29;20065;-87
2023/07/15 16:35:33;;;;;;;1.85;1.40;;;;;;;;;;4936379;29;20032;-88
2023/07/15 16:38:25;;;;;;;4.07;1.85;;;;;;;;;;4935938;29;20036;-88
2023/07/15 16:41:13;;;;;;;5.95;4.38;;;;;;;;;;4935824;29;20058;-89
2023/07/15 16:43:55;;;;;;;1.98;1.40;;;;;;;;;;4935208;29;20064;-88
2023/07/15 16:46:35;;;;;;;1.58;1.33;;;;;;;;;;4936566;29;20210;-88
2023/07/15 16:49:20;;;;;;;3.55;1.42;;;;;;;;;;4936072;29;20040;-87
2023/07/15 16:52:03;;;;;;;2.75;1.75;;;;;;;;;;4935919;29;20040;-88
2023/07/15 16:58:31;;;;;;;3.92;1.33;;;;;;;;;;4937248;29;20039;-88
2023/07/15 17:01:14;;;;;;;11.43;6.80;;;;;;;;;;4938231;29;20044;-88
2023/07/15 17:03:55;;;;;;;3.10;2.22;;;;;;;;;;4934370;29;20035;-87
2023/07/15 17:06:35;;;;;;;2.08;1.50;;;;;;;;;;4935306;29;20069;-88
2023/07/15 17:09:16;;;;;;;2.85;1.92;;;;;;;;;;4935572;29;20040;-87
2023/07/15 17:12:04;;;;;;;3.45;1.83;;;;;;;;;;4936461;29;20048;-87